Meteo Giornale » Osservazioni meteo Francia » Reims-Prunay
ore: 23:00 - Osservazioni Meteo Reims-Prunay
Lat. 49° 12' N Lon. 4° 9' E Alt. 96 metri s.l.m.
13 °C
Sereno
Temp. 24 Ore
13 °C
24 °C
Nord
5.5 Km/h
Dew point 12 °C
Umidità 93 %
Visibilità 10 Km
Il sole sorge alle ore 06:59
Il sole tramonta alle ore 20:27
| Data e Ora | Cielo e Fenomeni | T °C | DP °C | Um. % | Pres. hPa | Vis. km | Vento km/h | |
|---|---|---|---|---|---|---|---|---|
| Ieri h: 23:00 | Sereno | 13 | 12 | 93 | 1020 | 10 | N 5.5 | |
| Ieri h: 22:30 | Sereno | 14 | 12 | 87 | 1020 | 10 | N 5.5 | |
| Ieri h: 22:00 | Sereno | 15 | 13 | 87 | 1019 | 10 | N 1.8 | |
| Ieri h: 21:30 | Sereno | 17 | 13 | 77 | 1019 | 10 | N 5.5 | |
| Ieri h: 21:00 | Sereno | 18 | 14 | 77 | 1019 | 10 | N 5.5 | |
| Ieri h: 20:30 | Sereno | 19 | 14 | 72 | 1018 | 10 | O 9.3 | |
| Ieri h: 20:00 | Sereno | 20 | 14 | 68 | 1018 | 10 | O/SO 11.1 | |
| Ieri h: 19:30 | Sereno | 21 | 14 | 64 | 1018 | 10 | O 14.8 | |
| Ieri h: 19:00 | Sereno | 21 | 14 | 64 | 1018 | 10 | O 20.3 | |
| Ieri h: 18:30 | Sereno | 21 | 14 | 64 | 1018 | 10 | O 18.5 | |
| Ieri h: 18:00 | Coperto | 20 | 15 | 72 | 1017 | 10 | O/SO 18.5 | |
| Ieri h: 17:30 | Sereno | 20 | 15 | 72 | 1017 | 10 | O 24 | |
| Ieri h: 17:00 | Molto Nuvoloso | 20 | 17 | 82 | 1017 | 10 | O/NO 16.7 | |
| Ieri h: 16:30 | Molto Nuvoloso | 23 | 12 | 49 | 1016 | 10 | O 22.2 | |
| Ieri h: 16:00 | Poco Nuvoloso | 24 | 12 | 47 | 1016 | 10 | O 24 | |
| Ieri h: 15:30 | Molto Nuvoloso | 24 | 13 | 50 | 1016 | 10 | O 27.8 | |
| Ieri h: 15:00 | Molto Nuvoloso | 23 | 12 | 49 | 1016 | 10 | O/SO 35.2 | |
| Ieri h: 14:30 | Molto Nuvoloso | 23 | 13 | 53 | 1015 | 10 | O/SO 27.8 | |
| Ieri h: 14:00 | Poco Nuvoloso | 23 | 13 | 53 | 1015 | 10 | O/SO 31.5 | |
| Ieri h: 13:30 | Molto Nuvoloso | 23 | 13 | 53 | 1015 | 10 | O/SO 31.5 | |
| Ieri h: 13:00 | Molto Nuvoloso | 23 | 13 | 53 | 1015 | 10 | O/SO 31.5 | |
| Ieri h: 12:30 | Nuvoloso | 21 | 14 | 64 | 1015 | 10 | SO 27.8 | |
| Ieri h: 12:00 | Pioggia | 19 | 15 | 77 | 1015 | 5 | SO 27.8 | |
| Ieri h: 11:30 | Molto Nuvoloso | 21 | 13 | 60 | 1015 | 10 | O/SO 25.9 | |
| Ieri h: 11:00 | Coperto | 20 | 13 | 64 | 1015 | 10 | O/SO 24 | |
| Ieri h: 10:30 | Molto Nuvoloso | 21 | 13 | 60 | 1015 | 10 | O/SO 24 | |
| Ieri h: 10:00 | Coperto | 19 | 14 | 72 | 1015 | 10 | SO 22.2 | |
| Ieri h: 09:30 | Coperto | 19 | 14 | 72 | 1014 | 10 | SO 24 | |
| Ieri h: 09:00 | Coperto | 19 | 14 | 72 | 1014 | 10 | SO 20.3 | |
| Ieri h: 08:30 | Molto Nuvoloso | 19 | 14 | 72 | 1014 | 10 | SO 22.2 | |
| Ieri h: 08:00 | Molto Nuvoloso | 18 | 14 | 77 | 1014 | 10 | S/SO 18.5 | |



